Terminal Aerodrome Forecast
Issued by NWS St Louis, MO

Home | Current Version | Previous Version | Text Only | Print | Product List | Glossary On
Versions: 1 2 3 4 5 6 7 8 9 10 11 12
000
FTUS43 KLSX 180500
TAFCOU
TAF
KCOU 180536Z 1806/1906 29009KT P6SM FEW040
     FM181600 25012G20KT P6SM SCT040
     FM182300 19008KT P6SM SKC=

USA.gov is the U.S. government's official web portal to all federal, state and local government web resources and services.